Time;durP1;ratioP1;P1;durP2;ratioP2;P2;SDS_P1;SDS_P2;PMS_P1;PMS_P2;Temp;Humidity;BMP_temperature;BMP_pressure;BME280_temperature;BME280_humidity;BME280_pressure;Samples;Min_cycle;Max_cycle;Signal;HPM_P1;HPM_P2
2021/06/05 00:02:27;;;;;;;14.77;6.55;;;;;;;;;;4404014;32;20225;-57
2021/06/05 00:04:56;;;;;;;7.00;4.80;;;;;;;;;;4403985;32;20213;-57
2021/06/05 00:07:22;;;;;;;5.85;4.50;;;;;;;;;;4404151;32;20369;-56
2021/06/05 00:09:47;;;;;;;7.65;4.60;;;;;;;;;;4403550;32;20626;-57
2021/06/05 00:12:18;;;;;;;11.52;5.18;;;;;;;;;;4403659;32;20244;-58
2021/06/05 00:14:43;;;;;;;7.97;4.80;;;;;;;;;;4404025;32;20198;-58
2021/06/05 00:17:09;;;;;;;7.82;4.95;;;;;;;;;;4404072;32;20260;-58
2021/06/05 00:19:34;;;;;;;7.93;5.40;;;;;;;;;;4392488;32;20263;-58
2021/06/05 00:22:00;;;;;;;10.88;5.30;;;;;;;;;;4403943;32;20299;-58
2021/06/05 00:24:26;;;;;;;6.28;4.85;;;;;;;;;;4403764;32;20268;-58
2021/06/05 00:26:53;;;;;;;8.95;5.05;;;;;;;;;;4404654;32;20561;-57
2021/06/05 00:29:18;;;;;;;7.12;4.90;;;;;;;;;;4418619;32;20209;-57
2021/06/05 00:31:44;;;;;;;8.48;5.40;;;;;;;;;;4409992;32;20295;-57
2021/06/05 00:34:10;;;;;;;8.63;4.87;;;;;;;;;;4403472;32;20206;-57
2021/06/05 00:36:36;;;;;;;9.07;6.12;;;;;;;;;;4403280;32;20239;-57
2021/06/05 00:39:03;;;;;;;18.50;6.97;;;;;;;;;;4403409;32;20193;-56
2021/06/05 00:41:29;;;;;;;11.12;6.68;;;;;;;;;;4403343;32;20253;-58
2021/06/05 00:43:59;;;;;;;8.90;6.78;;;;;;;;;;4403415;32;20224;-58
2021/06/05 00:46:27;;;;;;;11.90;7.25;;;;;;;;;;4403548;32;20533;-58
2021/06/05 00:48:53;;;;;;;15.52;8.43;;;;;;;;;;4403283;32;20560;-58
2021/06/05 00:51:28;;;;;;;11.93;7.45;;;;;;;;;;4400569;32;20290;-58
2021/06/05 00:53:53;;;;;;;9.90;6.70;;;;;;;;;;4418734;32;20197;-57
2021/06/05 00:56:19;;;;;;;8.15;6.45;;;;;;;;;;4418457;32;20250;-58
2021/06/05 00:58:45;;;;;;;14.85;7.47;;;;;;;;;;4418332;32;20205;-58
2021/06/05 01:01:17;;;;;;;13.62;6.40;;;;;;;;;;4418563;32;20209;-58
2021/06/05 01:03:44;;;;;;;10.77;7.45;;;;;;;;;;4418776;32;20236;-58
2021/06/05 01:06:28;;;;;;;10.85;5.93;;;;;;;;;;4418281;32;20229;-58
2021/06/05 01:09:25;;;;;;;10.70;5.82;;;;;;;;;;4418330;32;20456;-57
2021/06/05 01:12:09;;;;;;;16.50;7.07;;;;;;;;;;4418537;32;20273;-58
2021/06/05 01:14:39;;;;;;;13.48;7.60;;;;;;;;;;4418065;32;20582;-58
2021/06/05 01:17:12;;;;;;;14.77;6.95;;;;;;;;;;4418206;32;20242;-57
2021/06/05 01:19:43;;;;;;;9.75;7.05;;;;;;;;;;4417666;32;20546;-56
2021/06/05 01:22:23;;;;;;;7.87;5.15;;;;;;;;;;4419757;32;20278;-56
2021/06/05 01:25:12;;;;;;;11.00;6.25;;;;;;;;;;4409346;32;20663;-56
2021/06/05 01:27:44;;;;;;;14.70;7.03;;;;;;;;;;4412611;32;20293;-57
2021/06/05 01:30:18;;;;;;;12.07;7.45;;;;;;;;;;4421018;32;20322;-57
2021/06/05 01:32:44;;;;;;;10.95;7.43;;;;;;;;;;4406499;32;20309;-57
2021/06/05 01:35:13;;;;;;;16.58;8.27;;;;;;;;;;4405916;32;20210;-57
2021/06/05 01:37:41;;;;;;;12.88;8.15;;;;;;;;;;4405983;32;20616;-57
2021/06/05 01:40:11;;;;;;;12.23;7.75;;;;;;;;;;4405825;32;20221;-57
2021/06/05 01:42:37;;;;;;;15.82;7.37;;;;;;;;;;4405973;32;20213;-57
2021/06/05 01:45:07;;;;;;;13.00;7.65;;;;;;;;;;4391808;32;20229;-56
2021/06/05 01:47:32;;;;;;;15.65;6.95;;;;;;;;;;4406048;32;20212;-56
2021/06/05 01:49:58;;;;;;;10.02;6.68;;;;;;;;;;4408455;32;20235;-57
2021/06/05 01:52:29;;;;;;;12.07;7.37;;;;;;;;;;4420752;32;20679;-57
2021/06/05 01:55:18;;;;;;;10.60;6.65;;;;;;;;;;4420791;32;20232;-56
2021/06/05 01:57:52;;;;;;;10.70;6.40;;;;;;;;;;4420206;32;20216;-56
2021/06/05 02:00:22;;;;;;;10.30;7.00;;;;;;;;;;4421303;32;20343;-57
2021/06/05 02:02:48;;;;;;;10.10;6.53;;;;;;;;;;4420626;32;20259;-57
2021/06/05 02:05:13;;;;;;;13.30;6.78;;;;;;;;;;4420193;32;20276;-57
2021/06/05 02:07:39;;;;;;;14.07;6.68;;;;;;;;;;4420542;32;20266;-57
2021/06/05 02:10:12;;;;;;;8.55;5.82;;;;;;;;;;4420644;32;20644;-57
2021/06/05 02:12:38;;;;;;;9.00;6.55;;;;;;;;;;4420752;32;20596;-57
2021/06/05 02:15:25;;;;;;;10.02;6.78;;;;;;;;;;4420001;32;20217;-57
2021/06/05 02:17:51;;;;;;;9.23;6.60;;;;;;;;;;4420392;32;20213;-55
2021/06/05 02:20:23;;;;;;;18.00;7.25;;;;;;;;;;4419961;32;20252;-56
2021/06/05 02:22:51;;;;;;;11.63;6.65;;;;;;;;;;4419927;32;20217;-56
2021/06/05 02:25:21;;;;;;;12.02;6.95;;;;;;;;;;4412219;32;20265;-56
2021/06/05 02:27:51;;;;;;;9.43;6.50;;;;;;;;;;4411556;32;20284;-57
2021/06/05 02:30:19;;;;;;;11.20;6.07;;;;;;;;;;4420186;32;20301;-56
2021/06/05 02:32:45;;;;;;;21.02;8.05;;;;;;;;;;4404502;32;20578;-56
2021/06/05 02:35:14;;;;;;;11.55;6.85;;;;;;;;;;4404465;32;20244;-56
2021/06/05 02:37:40;;;;;;;10.45;8.25;;;;;;;;;;4390894;32;20328;-56
2021/06/05 02:40:10;;;;;;;20.17;8.70;;;;;;;;;;4404942;32;20606;-56
2021/06/05 02:42:38;;;;;;;16.65;7.20;;;;;;;;;;4404719;32;20233;-56
2021/06/05 02:45:11;;;;;;;17.73;8.63;;;;;;;;;;4390624;32;20305;-55
2021/06/05 02:47:37;;;;;;;16.95;8.88;;;;;;;;;;4404982;32;20281;-55
2021/06/05 02:50:08;;;;;;;13.25;8.43;;;;;;;;;;4407389;32;20212;-55
2021/06/05 02:52:35;;;;;;;15.25;8.48;;;;;;;;;;4419148;32;20727;-55
2021/06/05 02:55:09;;;;;;;13.98;7.93;;;;;;;;;;4419258;32;20217;-56
2021/06/05 02:57:35;;;;;;;13.48;8.70;;;;;;;;;;4419669;32;20277;-56
2021/06/05 03:00:03;;;;;;;14.10;8.70;;;;;;;;;;4419920;32;20639;-55
2021/06/05 03:02:28;;;;;;;15.48;7.95;;;;;;;;;;4419696;32;20229;-56
2021/06/05 03:04:54;;;;;;;17.60;9.68;;;;;;;;;;4419571;32;20279;-56
2021/06/05 03:07:19;;;;;;;14.13;8.88;;;;;;;;;;4419406;32;20620;-56
2021/06/05 03:09:45;;;;;;;18.33;7.90;;;;;;;;;;4405526;32;20564;-56
2021/06/05 03:12:13;;;;;;;17.70;10.23;;;;;;;;;;4419251;32;20298;-56
2021/06/05 03:14:39;;;;;;;17.83;8.27;;;;;;;;;;4419146;32;20244;-55
2021/06/05 03:17:06;;;;;;;14.10;7.90;;;;;;;;;;4419263;32;20529;-55
2021/06/05 03:19:32;;;;;;;18.75;8.65;;;;;;;;;;4419167;32;20228;-56
2021/06/05 03:21:57;;;;;;;18.67;8.52;;;;;;;;;;4419105;32;20296;-56
2021/06/05 03:24:23;;;;;;;17.87;9.40;;;;;;;;;;4418949;32;20689;-55
2021/06/05 03:26:49;;;;;;;22.45;9.07;;;;;;;;;;4411687;32;20213;-56
2021/06/05 03:29:14;;;;;;;18.50;8.60;;;;;;;;;;4419056;32;20273;-56
2021/06/05 03:31:40;;;;;;;16.42;10.45;;;;;;;;;;4410809;32;20300;-56
2021/06/05 03:34:05;;;;;;;19.08;8.98;;;;;;;;;;4389834;32;20221;-56
2021/06/05 03:36:31;;;;;;;14.77;9.05;;;;;;;;;;4403902;32;20358;-56
2021/06/05 03:38:57;;;;;;;13.82;8.63;;;;;;;;;;4389737;32;20332;-56
2021/06/05 03:41:23;;;;;;;17.10;9.18;;;;;;;;;;4403964;32;20670;-56
2021/06/05 03:43:48;;;;;;;18.12;9.60;;;;;;;;;;4403524;32;20427;-56
2021/06/05 03:46:14;;;;;;;19.30;9.27;;;;;;;;;;4403796;32;20718;-56
2021/06/05 03:48:39;;;;;;;16.33;9.48;;;;;;;;;;4403785;32;20233;-57
2021/06/05 03:51:06;;;;;;;21.55;10.18;;;;;;;;;;4413476;32;20689;-57
2021/06/05 03:53:32;;;;;;;21.25;9.30;;;;;;;;;;4418776;32;20251;-56
2021/06/05 03:55:57;;;;;;;16.90;8.48;;;;;;;;;;4418883;32;20302;-57
2021/06/05 03:58:29;;;;;;;16.05;9.77;;;;;;;;;;4419096;32;20613;-57
2021/06/05 04:00:56;;;;;;;14.50;9.48;;;;;;;;;;4419115;32;20259;-57
2021/06/05 04:03:21;;;;;;;14.80;9.63;;;;;;;;;;4405086;32;20346;-56
2021/06/05 04:05:47;;;;;;;19.20;9.88;;;;;;;;;;4418893;32;20225;-57
2021/06/05 04:08:12;;;;;;;17.60;9.63;;;;;;;;;;4418459;32;20240;-57
2021/06/05 04:10:39;;;;;;;18.58;10.63;;;;;;;;;;4418734;32;20433;-57
2021/06/05 04:13:05;;;;;;;16.45;9.68;;;;;;;;;;4418622;32;20297;-57
2021/06/05 04:15:32;;;;;;;13.95;9.18;;;;;;;;;;4418470;32;20640;-58
2021/06/05 04:18:09;;;;;;;16.77;9.30;;;;;;;;;;4418630;32;20616;-56
2021/06/05 04:20:38;;;;;;;18.83;10.52;;;;;;;;;;4419005;32;20304;-57
2021/06/05 04:23:04;;;;;;;15.60;9.52;;;;;;;;;;4417886;32;20245;-57
2021/06/05 04:25:30;;;;;;;20.77;10.85;;;;;;;;;;4404629;32;20414;-58
2021/06/05 04:27:56;;;;;;;13.27;9.57;;;;;;;;;;4415894;32;20233;-56
2021/06/05 04:30:24;;;;;;;17.65;10.02;;;;;;;;;;4418689;32;20587;-56
2021/06/05 04:32:50;;;;;;;15.40;8.70;;;;;;;;;;4403831;32;20221;-57
2021/06/05 04:35:16;;;;;;;17.00;10.55;;;;;;;;;;4403062;32;20322;-58
2021/06/05 04:37:42;;;;;;;14.40;8.40;;;;;;;;;;4403387;32;20299;-57
2021/06/05 04:40:08;;;;;;;16.77;9.27;;;;;;;;;;4403110;32;20201;-57
2021/06/05 04:42:33;;;;;;;19.87;8.95;;;;;;;;;;4377214;32;20261;-58
2021/06/05 04:44:59;;;;;;;17.42;10.00;;;;;;;;;;4403275;32;20295;-57
2021/06/05 04:47:24;;;;;;;19.42;9.82;;;;;;;;;;4403380;32;20217;-57
2021/06/05 04:49:50;;;;;;;16.83;8.57;;;;;;;;;;4404997;32;20251;-57
2021/06/05 04:52:15;;;;;;;18.80;9.52;;;;;;;;;;4418410;32;20254;-57
2021/06/05 04:54:41;;;;;;;15.02;9.93;;;;;;;;;;4418367;32;20295;-57
2021/06/05 04:57:06;;;;;;;22.50;9.05;;;;;;;;;;4418507;32;20220;-56
2021/06/05 04:59:32;;;;;;;22.58;9.95;;;;;;;;;;4418342;32;20240;-57
2021/06/05 05:01:57;;;;;;;21.17;10.48;;;;;;;;;;4418443;32;20229;-56
2021/06/05 05:04:23;;;;;;;21.60;8.95;;;;;;;;;;4418166;32;20213;-56
2021/06/05 05:06:49;;;;;;;14.60;8.43;;;;;;;;;;4404445;32;20232;-57
2021/06/05 05:09:15;;;;;;;11.02;8.00;;;;;;;;;;4404213;32;20705;-56
2021/06/05 05:11:41;;;;;;;15.85;8.40;;;;;;;;;;4418014;32;20813;-57
2021/06/05 05:14:07;;;;;;;15.30;8.10;;;;;;;;;;4418188;32;20232;-57
2021/06/05 05:16:33;;;;;;;14.75;8.38;;;;;;;;;;4418455;32;20255;-56
2021/06/05 05:18:59;;;;;;;23.23;9.48;;;;;;;;;;4418479;32;20265;-57
2021/06/05 05:21:26;;;;;;;19.67;8.55;;;;;;;;;;4418259;32;20692;-57
2021/06/05 05:23:55;;;;;;;12.80;9.02;;;;;;;;;;4417631;32;20295;-57
2021/06/05 05:26:21;;;;;;;13.65;8.05;;;;;;;;;;4418394;32;20290;-56
2021/06/05 05:28:49;;;;;;;10.70;8.13;;;;;;;;;;4417968;32;20290;-57
2021/06/05 05:31:18;;;;;;;14.95;8.13;;;;;;;;;;4398747;32;20647;-57
2021/06/05 05:33:43;;;;;;;14.90;9.57;;;;;;;;;;4403119;32;20250;-57
2021/06/05 05:36:17;;;;;;;16.75;9.98;;;;;;;;;;4388966;32;20240;-57
2021/06/05 05:38:43;;;;;;;21.55;13.00;;;;;;;;;;4402909;32;20259;-56
2021/06/05 05:41:11;;;;;;;27.02;11.95;;;;;;;;;;4402888;32;20639;-56
2021/06/05 05:43:36;;;;;;;29.17;13.85;;;;;;;;;;4388864;32;20221;-58
2021/06/05 05:46:04;;;;;;;23.58;12.55;;;;;;;;;;4402567;32;20310;-57
2021/06/05 05:48:31;;;;;;;25.67;11.98;;;;;;;;;;4402621;32;20295;-57
2021/06/05 05:50:56;;;;;;;25.12;13.68;;;;;;;;;;4410794;32;20690;-57
2021/06/05 05:53:22;;;;;;;23.98;13.45;;;;;;;;;;4417697;32;20273;-58
2021/06/05 05:55:47;;;;;;;19.92;11.48;;;;;;;;;;4417369;32;20235;-58
2021/06/05 05:58:16;;;;;;;18.75;12.35;;;;;;;;;;4417754;32;20254;-57
2021/06/05 06:00:45;;;;;;;19.70;12.20;;;;;;;;;;4418356;32;20785;-57
2021/06/05 06:03:11;;;;;;;23.77;11.15;;;;;;;;;;4418047;32;20311;-57
2021/06/05 06:05:37;;;;;;;21.95;11.88;;;;;;;;;;4417453;32;20613;-57
2021/06/05 06:08:05;;;;;;;17.25;10.20;;;;;;;;;;4419476;32;20300;-57
2021/06/05 06:10:31;;;;;;;18.12;9.98;;;;;;;;;;4421241;32;20324;-57
2021/06/05 06:12:56;;;;;;;28.12;11.20;;;;;;;;;;4421152;32;20225;-56
2021/06/05 06:15:25;;;;;;;17.77;8.70;;;;;;;;;;4420941;32;20302;-57
2021/06/05 06:17:51;;;;;;;22.10;10.52;;;;;;;;;;4420949;32;20452;-57
2021/06/05 06:20:24;;;;;;;17.00;9.18;;;;;;;;;;4420351;32;20318;-57
2021/06/05 06:22:50;;;;;;;19.23;9.40;;;;;;;;;;4420160;32;20224;-57
2021/06/05 06:25:19;;;;;;;24.37;11.77;;;;;;;;;;4420615;32;20348;-58
2021/06/05 06:27:46;;;;;;;19.10;9.50;;;;;;;;;;4420458;32;20316;-56
2021/06/05 06:30:25;;;;;;;14.73;9.57;;;;;;;;;;4402788;32;20653;-58
2021/06/05 06:32:52;;;;;;;19.95;9.50;;;;;;;;;;4405479;32;20253;-58
2021/06/05 06:35:22;;;;;;;19.75;8.68;;;;;;;;;;4404734;32;20240;-58
2021/06/05 06:37:48;;;;;;;16.92;8.38;;;;;;;;;;4404895;32;20246;-58
2021/06/05 06:40:15;;;;;;;14.05;8.13;;;;;;;;;;4405131;32;20281;-58
2021/06/05 06:42:41;;;;;;;15.05;7.50;;;;;;;;;;4405865;32;20330;-57
2021/06/05 06:45:07;;;;;;;10.45;7.05;;;;;;;;;;4405183;32;20213;-56
2021/06/05 06:47:32;;;;;;;13.82;8.18;;;;;;;;;;4405465;32;20628;-56
2021/06/05 06:49:58;;;;;;;16.17;7.82;;;;;;;;;;4407617;32;20683;-58
2021/06/05 06:52:25;;;;;;;12.68;7.87;;;;;;;;;;4419868;32;20687;-57
2021/06/05 06:54:54;;;;;;;14.15;7.35;;;;;;;;;;4419906;32;20205;-57
2021/06/05 06:57:20;;;;;;;21.52;7.78;;;;;;;;;;4419949;32;20676;-57
2021/06/05 06:59:46;;;;;;;12.48;7.50;;;;;;;;;;4420042;32;20318;-56
2021/06/05 07:02:12;;;;;;;17.67;8.43;;;;;;;;;;4419779;32;20581;-57
2021/06/05 07:04:37;;;;;;;21.08;9.10;;;;;;;;;;4405596;32;20287;-57
2021/06/05 07:07:05;;;;;;;18.70;7.47;;;;;;;;;;4419506;32;20608;-57
2021/06/05 07:09:32;;;;;;;19.12;7.93;;;;;;;;;;4419647;32;20255;-58
2021/06/05 07:11:59;;;;;;;13.95;7.05;;;;;;;;;;4405095;32;20256;-57
2021/06/05 07:14:25;;;;;;;16.45;7.30;;;;;;;;;;4404941;32;20462;-57
2021/06/05 07:16:50;;;;;;;14.48;6.78;;;;;;;;;;4417391;32;20209;-58
2021/06/05 07:19:16;;;;;;;12.75;6.97;;;;;;;;;;4404123;32;20205;-58
2021/06/05 07:21:42;;;;;;;11.15;6.57;;;;;;;;;;4418222;32;20762;-57
2021/06/05 07:24:07;;;;;;;16.27;7.05;;;;;;;;;;4405300;32;20286;-57
2021/06/05 07:26:34;;;;;;;16.08;6.10;;;;;;;;;;4419230;32;20245;-57
2021/06/05 07:29:05;;;;;;;14.40;6.00;;;;;;;;;;4418895;32;20523;-57
2021/06/05 07:31:38;;;;;;;12.70;5.78;;;;;;;;;;4419070;32;20694;-58
2021/06/05 07:34:04;;;;;;;16.45;6.28;;;;;;;;;;4411378;32;20224;-58
2021/06/05 07:36:40;;;;;;;23.17;7.97;;;;;;;;;;4405399;32;20546;-57
2021/06/05 07:39:07;;;;;;;16.95;6.35;;;;;;;;;;4418751;32;20307;-57
2021/06/05 07:41:34;;;;;;;10.57;5.10;;;;;;;;;;4419189;32;20239;-59
2021/06/05 07:44:00;;;;;;;16.90;6.03;;;;;;;;;;4418699;32;20201;-58
2021/06/05 07:46:26;;;;;;;9.70;5.47;;;;;;;;;;4418889;32;20383;-58
2021/06/05 07:48:52;;;;;;;14.45;5.57;;;;;;;;;;4418470;32;20248;-59
2021/06/05 07:51:18;;;;;;;7.97;6.10;;;;;;;;;;4404844;32;20327;-57
2021/06/05 07:53:45;;;;;;;16.27;6.20;;;;;;;;;;4404702;32;20255;-58
2021/06/05 07:56:11;;;;;;;18.15;6.35;;;;;;;;;;4418776;32;20499;-57
2021/06/05 07:58:36;;;;;;;14.30;6.20;;;;;;;;;;4418485;32;20240;-57
2021/06/05 08:01:04;;;;;;;10.45;5.80;;;;;;;;;;4418344;32;20268;-58
2021/06/05 08:03:29;;;;;;;15.65;4.93;;;;;;;;;;4418434;32;20549;-58
2021/06/05 08:05:55;;;;;;;12.57;5.78;;;;;;;;;;4418630;32;20210;-58
2021/06/05 08:08:20;;;;;;;12.15;5.93;;;;;;;;;;4417875;32;20280;-58
2021/06/05 08:10:46;;;;;;;19.02;5.28;;;;;;;;;;4418664;32;20271;-58
2021/06/05 08:13:13;;;;;;;14.02;6.80;;;;;;;;;;4404169;32;20359;-56
2021/06/05 08:15:43;;;;;;;12.80;5.72;;;;;;;;;;4418338;32;20531;-57
2021/06/05 08:18:10;;;;;;;13.35;5.32;;;;;;;;;;4418322;32;20287;-58
2021/06/05 08:20:44;;;;;;;12.07;4.43;;;;;;;;;;4404659;32;20267;-58
2021/06/05 08:23:10;;;;;;;13.35;4.72;;;;;;;;;;4414478;32;20212;-58
2021/06/05 08:25:35;;;;;;;8.55;4.85;;;;;;;;;;4418281;32;20273;-58
2021/06/05 08:28:01;;;;;;;10.38;3.60;;;;;;;;;;4417683;32;20783;-58
2021/06/05 08:30:41;;;;;;;11.23;3.83;;;;;;;;;;4418282;32;20318;-57
2021/06/05 08:33:07;;;;;;;6.30;3.75;;;;;;;;;;4417265;32;20237;-57
2021/06/05 08:35:33;;;;;;;10.75;4.05;;;;;;;;;;4416259;32;20258;-58
2021/06/05 08:37:59;;;;;;;11.88;3.20;;;;;;;;;;4418234;32;20647;-57
2021/06/05 08:40:37;;;;;;;11.15;4.20;;;;;;;;;;4418252;32;20378;-58
2021/06/05 08:43:03;;;;;;;8.55;3.58;;;;;;;;;;4418267;32;20213;-57
2021/06/05 08:45:31;;;;;;;6.60;3.17;;;;;;;;;;4418509;32;20567;-57
2021/06/05 08:47:58;;;;;;;5.78;3.95;;;;;;;;;;4418233;32;20371;-58
2021/06/05 08:50:28;;;;;;;3.80;2.62;;;;;;;;;;4418140;32;20307;-58
2021/06/05 08:52:54;;;;;;;8.88;3.62;;;;;;;;;;4416722;32;20274;-57
2021/06/05 08:55:39;;;;;;;7.62;4.37;;;;;;;;;;4418500;32;20339;-57
2021/06/05 08:58:29;;;;;;;7.03;3.75;;;;;;;;;;4416319;32;20217;-57
2021/06/05 09:01:04;;;;;;;6.90;3.40;;;;;;;;;;4417857;32;20283;-57
2021/06/05 09:03:32;;;;;;;9.65;3.92;;;;;;;;;;4418270;32;20192;-56
2021/06/05 09:06:06;;;;;;;10.35;3.70;;;;;;;;;;4417885;32;20367;-57
2021/06/05 09:08:32;;;;;;;3.45;2.85;;;;;;;;;;4417972;32;20618;-58
2021/06/05 09:11:01;;;;;;;11.27;2.83;;;;;;;;;;4418054;32;20272;-57
2021/06/05 09:13:28;;;;;;;8.50;2.42;;;;;;;;;;4417999;32;20205;-58
2021/06/05 09:16:22;;;;;;;5.65;3.53;;;;;;;;;;4412067;32;20293;-57
2021/06/05 09:18:51;;;;;;;5.90;3.42;;;;;;;;;;4410377;32;20241;-57
2021/06/05 09:21:25;;;;;;;12.82;3.78;;;;;;;;;;4418034;32;20216;-57
2021/06/05 09:23:50;;;;;;;8.38;3.25;;;;;;;;;;4417588;32;20837;-57
2021/06/05 09:26:24;;;;;;;8.15;3.20;;;;;;;;;;4404272;32;20263;-57
2021/06/05 09:29:06;;;;;;;7.53;3.95;;;;;;;;;;4417728;32;20289;-58
2021/06/05 09:31:32;;;;;;;22.48;4.00;;;;;;;;;;4415497;32;20742;-58
2021/06/05 09:33:57;;;;;;;20.12;4.00;;;;;;;;;;4403983;32;20541;-58
2021/06/05 09:36:29;;;;;;;23.05;4.50;;;;;;;;;;4416295;32;20603;-58
2021/06/05 09:38:58;;;;;;;7.05;3.55;;;;;;;;;;4415700;32;20241;-57
2021/06/05 09:41:36;;;;;;;6.87;3.62;;;;;;;;;;4403970;32;20315;-58
2021/06/05 09:44:20;;;;;;;7.62;3.53;;;;;;;;;;4420554;32;20271;-58
2021/06/05 09:46:56;;;;;;;16.12;3.90;;;;;;;;;;4420104;32;20760;-59
2021/06/05 09:49:28;;;;;;;4.97;4.22;;;;;;;;;;4419583;32;20356;-57
2021/06/05 09:52:11;;;;;;;8.25;4.07;;;;;;;;;;4420041;32;20278;-57
2021/06/05 09:54:43;;;;;;;5.87;3.80;;;;;;;;;;4419666;32;20254;-57
2021/06/05 09:57:17;;;;;;;6.97;4.12;;;;;;;;;;4418873;32;20214;-57
2021/06/05 09:59:42;;;;;;;5.78;3.42;;;;;;;;;;4418661;32;20239;-57
2021/06/05 10:02:20;;;;;;;7.40;3.40;;;;;;;;;;4416194;32;20760;-57
2021/06/05 10:05:07;;;;;;;7.97;3.78;;;;;;;;;;4415267;32;20670;-58
2021/06/05 10:07:32;;;;;;;8.10;3.40;;;;;;;;;;4418208;32;20609;-57
2021/06/05 10:10:13;;;;;;;7.07;3.58;;;;;;;;;;4418087;32;20217;-57
2021/06/05 10:12:41;;;;;;;10.65;3.85;;;;;;;;;;4418414;32;20247;-57
2021/06/05 10:15:21;;;;;;;6.78;3.85;;;;;;;;;;4417679;32;20244;-58
2021/06/05 10:18:05;;;;;;;7.18;3.95;;;;;;;;;;4418215;32;20296;-57
2021/06/05 10:20:41;;;;;;;8.52;3.50;;;;;;;;;;4418430;32;20285;-58
2021/06/05 10:23:08;;;;;;;11.00;3.95;;;;;;;;;;4418513;32;20287;-57
2021/06/05 10:25:38;;;;;;;5.80;3.58;;;;;;;;;;4404895;32;20699;-57
2021/06/05 10:28:12;;;;;;;5.18;3.55;;;;;;;;;;4414019;32;20290;-57
2021/06/05 10:30:42;;;;;;;5.20;3.30;;;;;;;;;;4415758;32;20507;-58
2021/06/05 10:33:22;;;;;;;10.95;3.92;;;;;;;;;;4420765;32;20235;-58
2021/06/05 10:35:48;;;;;;;4.80;3.40;;;;;;;;;;4420348;32;20231;-59
2021/06/05 10:38:36;;;;;;;4.90;2.95;;;;;;;;;;4420645;32;20618;-57
2021/06/05 10:41:02;;;;;;;7.87;3.42;;;;;;;;;;4420764;32;20275;-56
2021/06/05 10:43:27;;;;;;;4.45;3.22;;;;;;;;;;4420495;32;20238;-58
2021/06/05 10:45:57;;;;;;;10.00;3.58;;;;;;;;;;4419920;32;20684;-57
2021/06/05 10:48:30;;;;;;;7.57;3.67;;;;;;;;;;4419943;32;20201;-57
2021/06/05 10:51:22;;;;;;;6.65;3.12;;;;;;;;;;4411218;32;20537;-57
2021/06/05 10:53:56;;;;;;;6.60;3.35;;;;;;;;;;4405095;32;20212;-57
2021/06/05 10:56:42;;;;;;;5.93;3.45;;;;;;;;;;4390960;32;20333;-56
2021/06/05 10:59:45;;;;;;;7.57;3.67;;;;;;;;;;4405129;32;20311;-57
2021/06/05 11:02:36;;;;;;;9.68;3.83;;;;;;;;;;4404692;32;20244;-57
2021/06/05 11:05:31;;;;;;;4.45;3.17;;;;;;;;;;4404321;32;20620;-57
2021/06/05 11:08:10;;;;;;;7.85;3.33;;;;;;;;;;4384155;32;20237;-57
2021/06/05 11:10:54;;;;;;;4.65;3.08;;;;;;;;;;4404597;32;20339;-58
2021/06/05 11:13:31;;;;;;;7.60;3.10;;;;;;;;;;4404581;32;20635;-57
2021/06/05 11:16:17;;;;;;;7.97;3.58;;;;;;;;;;4404335;32;20799;-57
2021/06/05 11:19:07;;;;;;;7.28;3.92;;;;;;;;;;4403850;32;20241;-57
2021/06/05 11:21:43;;;;;;;7.32;4.30;;;;;;;;;;4403990;32;20666;-56
2021/06/05 11:24:14;;;;;;;9.25;3.55;;;;;;;;;;4410924;32;20209;-58
2021/06/05 11:26:42;;;;;;;5.37;3.78;;;;;;;;;;4405947;32;20229;-56
2021/06/05 11:29:20;;;;;;;6.30;3.60;;;;;;;;;;4404401;32;20213;-56
2021/06/05 11:31:53;;;;;;;6.43;4.10;;;;;;;;;;4408340;32;20372;-57
2021/06/05 11:34:28;;;;;;;4.43;3.50;;;;;;;;;;4404233;32;20317;-58
2021/06/05 11:37:01;;;;;;;5.45;3.25;;;;;;;;;;4404617;32;20281;-57
2021/06/05 11:39:26;;;;;;;5.50;2.97;;;;;;;;;;4404378;32;20193;-58
2021/06/05 11:41:59;;;;;;;6.32;3.05;;;;;;;;;;4404037;32;20312;-57
2021/06/05 11:44:38;;;;;;;5.10;3.53;;;;;;;;;;4403972;32;20225;-57
2021/06/05 11:47:15;;;;;;;4.78;3.05;;;;;;;;;;4403939;32;20350;-58
2021/06/05 11:49:42;;;;;;;7.18;3.10;;;;;;;;;;4404517;32;20317;-58
2021/06/05 11:52:29;;;;;;;13.35;3.83;;;;;;;;;;4419126;32;20542;-58
2021/06/05 11:54:56;;;;;;;4.82;3.70;;;;;;;;;;4419091;32;20537;-57
2021/06/05 11:57:31;;;;;;;8.98;3.30;;;;;;;;;;4418939;32;20244;-58
2021/06/05 12:00:03;;;;;;;6.95;3.33;;;;;;;;;;4418805;32;20378;-57
2021/06/05 12:02:41;;;;;;;6.20;3.53;;;;;;;;;;4418382;32;20253;-58
2021/06/05 12:05:14;;;;;;;3.05;2.65;;;;;;;;;;4417852;32;20266;-58
2021/06/05 12:07:42;;;;;;;9.57;3.62;;;;;;;;;;4403700;32;20240;-59
2021/06/05 12:10:09;;;;;;;7.87;3.67;;;;;;;;;;4417579;32;20288;-57
2021/06/05 12:12:44;;;;;;;7.43;3.17;;;;;;;;;;4418731;32;20233;-57
2021/06/05 12:15:47;;;;;;;6.85;3.87;;;;;;;;;;4405909;32;20259;-56
2021/06/05 12:18:27;;;;;;;6.57;3.00;;;;;;;;;;4416552;32;20297;-57
2021/06/05 12:21:00;;;;;;;5.68;2.97;;;;;;;;;;4418943;32;20181;-58
2021/06/05 12:23:37;;;;;;;5.72;3.62;;;;;;;;;;4405786;32;20198;-58
2021/06/05 12:26:13;;;;;;;8.80;3.10;;;;;;;;;;4409521;32;20519;-58
2021/06/05 12:28:42;;;;;;;5.03;2.85;;;;;;;;;;4415921;32;20204;-58
2021/06/05 12:31:17;;;;;;;7.57;3.42;;;;;;;;;;4413610;32;20251;-58
2021/06/05 12:33:53;;;;;;;6.40;3.10;;;;;;;;;;4393072;32;20243;-57
2021/06/05 12:36:24;;;;;;;4.03;2.72;;;;;;;;;;4404600;32;20221;-58
2021/06/05 12:38:51;;;;;;;4.40;3.03;;;;;;;;;;4418012;32;20262;-58
2021/06/05 12:41:29;;;;;;;5.32;3.00;;;;;;;;;;4404629;32;20645;-59
2021/06/05 12:43:56;;;;;;;6.78;4.22;;;;;;;;;;4404162;32;20233;-58
2021/06/05 12:46:36;;;;;;;5.80;3.40;;;;;;;;;;4418193;32;20413;-58
2021/06/05 12:49:05;;;;;;;6.60;3.67;;;;;;;;;;4418002;32;20743;-59
2021/06/05 12:51:34;;;;;;;10.65;3.65;;;;;;;;;;4417160;32;20232;-59
2021/06/05 12:54:25;;;;;;;5.90;2.80;;;;;;;;;;4417589;32;20280;-56
2021/06/05 12:56:51;;;;;;;7.57;2.75;;;;;;;;;;4412716;32;20309;-59
2021/06/05 12:59:30;;;;;;;8.73;2.90;;;;;;;;;;4417986;32;20541;-57
2021/06/05 13:01:56;;;;;;;7.43;3.30;;;;;;;;;;4413048;32;20311;-55
2021/06/05 13:04:30;;;;;;;8.13;3.17;;;;;;;;;;4417565;32;20641;-59
2021/06/05 13:07:03;;;;;;;3.67;2.83;;;;;;;;;;4417700;32;20225;-59
2021/06/05 13:09:34;;;;;;;8.70;3.42;;;;;;;;;;4418687;32;20705;-57
2021/06/05 13:12:03;;;;;;;4.35;3.03;;;;;;;;;;4418245;32;20277;-59
2021/06/05 13:14:33;;;;;;;7.62;3.22;;;;;;;;;;4418101;32;20259;-59
2021/06/05 13:17:24;;;;;;;3.55;2.62;;;;;;;;;;4419077;32;20247;-59
2021/06/05 13:19:50;;;;;;;4.87;3.28;;;;;;;;;;4421199;32;20560;-59
2021/06/05 13:22:15;;;;;;;8.40;2.92;;;;;;;;;;4421059;32;20300;-59
2021/06/05 13:25:20;;;;;;;6.18;2.60;;;;;;;;;;4421266;32;20703;-58
2021/06/05 13:27:58;;;;;;;5.15;2.95;;;;;;;;;;4420580;32;20284;-60
2021/06/05 13:30:32;;;;;;;7.07;3.37;;;;;;;;;;4415856;32;21129;-59
2021/06/05 13:32:58;;;;;;;5.68;2.92;;;;;;;;;;4418931;32;20239;-57
2021/06/05 13:35:43;;;;;;;2.55;2.35;;;;;;;;;;4420597;32;20299;-58
2021/06/05 13:38:21;;;;;;;6.07;3.25;;;;;;;;;;4420201;32;20212;-59
2021/06/05 13:40:47;;;;;;;8.23;2.70;;;;;;;;;;4420668;32;20339;-57
2021/06/05 13:43:13;;;;;;;4.18;2.72;;;;;;;;;;4418810;32;20259;-59
2021/06/05 13:45:39;;;;;;;10.10;2.97;;;;;;;;;;4421001;32;20285;-57
2021/06/05 13:48:05;;;;;;;4.32;2.72;;;;;;;;;;4405988;32;20232;-57
2021/06/05 13:50:33;;;;;;;10.63;2.85;;;;;;;;;;4420202;32;20289;-59
2021/06/05 13:53:21;;;;;;;3.72;2.47;;;;;;;;;;4406641;32;20289;-59
2021/06/05 13:55:52;;;;;;;9.05;3.35;;;;;;;;;;4420166;32;20637;-59
2021/06/05 13:58:17;;;;;;;8.85;2.80;;;;;;;;;;4406128;32;20527;-58
2021/06/05 14:00:45;;;;;;;5.57;2.80;;;;;;;;;;4420274;32;20368;-58
2021/06/05 14:03:11;;;;;;;5.82;3.20;;;;;;;;;;4419917;32;20240;-57
2021/06/05 14:05:36;;;;;;;6.82;2.92;;;;;;;;;;4420099;32;20229;-58
2021/06/05 14:08:03;;;;;;;8.38;2.87;;;;;;;;;;4419858;32;20577;-58
2021/06/05 14:10:28;;;;;;;9.25;3.03;;;;;;;;;;4405977;32;20228;-57
2021/06/05 14:12:58;;;;;;;15.30;2.80;;;;;;;;;;4419187;32;20810;-57
2021/06/05 14:15:25;;;;;;;5.90;3.33;;;;;;;;;;4419502;32;20756;-57
2021/06/05 14:17:51;;;;;;;3.78;2.33;;;;;;;;;;4418904;32;20278;-57
2021/06/05 14:20:20;;;;;;;4.90;2.90;;;;;;;;;;4420633;32;20358;-57
2021/06/05 14:22:45;;;;;;;4.70;3.08;;;;;;;;;;4419538;32;20666;-57
2021/06/05 14:25:14;;;;;;;18.25;5.28;;;;;;;;;;4405827;32;20386;-58
2021/06/05 14:27:39;;;;;;;4.07;2.90;;;;;;;;;;4416462;32;20254;-59
2021/06/05 14:30:08;;;;;;;5.60;2.90;;;;;;;;;;4407690;32;20209;-57
2021/06/05 14:32:34;;;;;;;3.87;3.17;;;;;;;;;;4406545;32;20290;-57
2021/06/05 14:35:00;;;;;;;11.43;4.03;;;;;;;;;;4405296;32;20245;-60
2021/06/05 14:37:25;;;;;;;8.40;3.70;;;;;;;;;;4405210;32;20312;-60
2021/06/05 14:39:51;;;;;;;5.85;3.05;;;;;;;;;;4404206;32;20323;-58
2021/06/05 14:42:18;;;;;;;3.83;2.85;;;;;;;;;;4404526;32;20275;-59
2021/06/05 14:44:43;;;;;;;3.83;2.85;;;;;;;;;;4404274;32;20280;-59
2021/06/05 14:47:09;;;;;;;11.65;4.15;;;;;;;;;;4412160;32;21492;-59
2021/06/05 14:49:34;;;;;;;9.23;3.22;;;;;;;;;;4418251;32;20357;-59
2021/06/05 14:52:00;;;;;;;5.68;2.37;;;;;;;;;;4419526;32;20244;-58